UKV1396 EGGP-EGFF
Flight info
| Callsign | UKV1396 |
|---|---|
| Flight time | N/A |
| Altitude | 22000 |
| Route | REXAM DCT MONTY |
| Aircraft | E75L/M-SDE3GILORVW/S |
Departure
| Time | 2026-05-04 12:37 |
|---|---|
| Airport | Liverpool John Lennon Airport (EGGP) |
Arrival
| Time | N/A |
|---|---|
| Airport | Cardiff International Airport (EGFF) |
| Time | Latitude | Longitude | Altitude | Speed | Heading |
|---|---|---|---|---|---|
| 2026-05-04 12:22 | 53.33650 | -2.85277 | 87 ft | 0 kts | 176° |
| 2026-05-04 12:30 | 53.33651 | -2.85277 | 87 ft | 1 kts | 176° |
| 2026-05-04 12:30 | 53.33665 | -2.85279 | 87 ft | 3 kts | 176° |
| 2026-05-04 12:30 | 53.33684 | -2.85281 | 87 ft | 3 kts | 176° |
| 2026-05-04 12:31 | 53.33690 | -2.85281 | 87 ft | 0 kts | 176° |
| 2026-05-04 12:31 | 53.33675 | -2.85264 | 87 ft | 3 kts | 104° |
| 2026-05-04 12:31 | 53.33679 | -2.85210 | 87 ft | 10 kts | 82° |
| 2026-05-04 12:31 | 53.33682 | -2.85160 | 87 ft | 6 kts | 85° |
| 2026-05-04 12:32 | 53.33689 | -2.85029 | 87 ft | 17 kts | 85° |
| 2026-05-04 12:32 | 53.33690 | -2.84653 | 87 ft | 1 kts | 174° |
| 2026-05-04 12:32 | 53.33657 | -2.84652 | 87 ft | 11 kts | 179° |
| 2026-05-04 12:33 | 53.33588 | -2.84634 | 87 ft | 9 kts | 147° |
| 2026-05-04 12:33 | 53.33578 | -2.84533 | 87 ft | 13 kts | 84° |
| 2026-05-04 12:33 | 53.33589 | -2.84318 | 87 ft | 19 kts | 86° |
| 2026-05-04 12:33 | 53.33598 | -2.84061 | 87 ft | 24 kts | 86° |
| 2026-05-04 12:34 | 53.33608 | -2.83786 | 87 ft | 25 kts | 86° |
| 2026-05-04 12:34 | 53.33618 | -2.83519 | 87 ft | 23 kts | 86° |
| 2026-05-04 12:34 | 53.33627 | -2.83293 | 87 ft | 12 kts | 86° |
| 2026-05-04 12:34 | 53.33632 | -2.83176 | 87 ft | 10 kts | 86° |
| 2026-05-04 12:35 | 53.33637 | -2.83031 | 87 ft | 15 kts | 86° |
| 2026-05-04 12:35 | 53.33617 | -2.82989 | 87 ft | 6 kts | 166° |
| 2026-05-04 12:35 | 53.33608 | -2.82987 | 87 ft | 0 kts | 178° |
| 2026-05-04 12:36 | 53.33605 | -2.82987 | 87 ft | 3 kts | 178° |
| 2026-05-04 12:36 | 53.33569 | -2.82990 | 87 ft | 5 kts | 189° |
| 2026-05-04 12:36 | 53.33504 | -2.83047 | 87 ft | 9 kts | 245° |
| 2026-05-04 12:36 | 53.33498 | -2.83081 | 87 ft | 2 kts | 265° |
| 2026-05-04 12:37 | 53.33466 | -2.83778 | 87 ft | 123 kts | 265° |
| 2026-05-04 12:37 | 53.33378 | -2.85660 | 524 ft | 173 kts | 265° |
| 2026-05-04 12:37 | 53.33271 | -2.87685 | 1116 ft | 185 kts | 265° |
| 2026-05-04 12:37 | 53.33136 | -2.89914 | 1645 ft | 196 kts | 264° |
| 2026-05-04 12:38 | 53.32994 | -2.92204 | 2153 ft | 202 kts | 264° |
| 2026-05-04 12:38 | 53.32945 | -2.93003 | 2326 ft | 204 kts | 264° |
| 2026-05-04 12:38 | 53.32862 | -2.94358 | 2613 ft | 206 kts | 264° |
| 2026-05-04 12:38 | 53.32764 | -2.95964 | 2951 ft | 209 kts | 264° |
| 2026-05-04 12:39 | 53.32703 | -2.96973 | 3136 ft | 213 kts | 264° |
| 2026-05-04 12:39 | 53.32552 | -2.99497 | 3633 ft | 222 kts | 264° |
| 2026-05-04 12:39 | 53.32397 | -3.02086 | 4272 ft | 227 kts | 265° |
| 2026-05-04 12:39 | 53.32334 | -3.03147 | 4525 ft | 230 kts | 264° |
| 2026-05-04 12:40 | 53.32154 | -3.05785 | 5141 ft | 235 kts | 261° |
| 2026-05-04 12:40 | 53.32075 | -3.06440 | 5294 ft | 236 kts | 258° |
| 2026-05-04 12:40 | 53.31954 | -3.07217 | 5478 ft | 237 kts | 255° |
| 2026-05-04 12:40 | 53.31449 | -3.09389 | 6015 ft | 241 kts | 245° |
| 2026-05-04 12:41 | 53.30549 | -3.11780 | 6630 ft | 245 kts | 230° |
| 2026-05-04 12:41 | 53.30242 | -3.12280 | 6786 ft | 245 kts | 223° |
| 2026-05-04 12:41 | 53.28886 | -3.13611 | 7392 ft | 250 kts | 203° |
| 2026-05-04 12:41 | 53.27196 | -3.14402 | 8035 ft | 253 kts | 191° |
| 2026-05-04 12:42 | 53.25459 | -3.14774 | 8664 ft | 257 kts | 185° |
| 2026-05-04 12:42 | 53.23618 | -3.14950 | 9311 ft | 267 kts | 182° |
| 2026-05-04 12:42 | 53.21748 | -3.15038 | 9936 ft | 271 kts | 181° |
| 2026-05-04 12:42 | 53.19850 | -3.15103 | 10566 ft | 276 kts | 181° |
| 2026-05-04 12:43 | 53.17901 | -3.15178 | 11199 ft | 280 kts | 181° |
| 2026-05-04 12:43 | 53.15941 | -3.15285 | 11827 ft | 283 kts | 182° |
| 2026-05-04 12:43 | 53.13979 | -3.15422 | 12451 ft | 286 kts | 182° |
| 2026-05-04 12:43 | 53.12643 | -3.15525 | 12870 ft | 288 kts | 182° |
| 2026-05-04 12:44 | 53.12078 | -3.15570 | 13046 ft | 289 kts | 183° |
| 2026-05-04 12:44 | 53.10488 | -3.15701 | 13542 ft | 291 kts | 183° |